sensor_id;sensor_type;location;lat;lon;timestamp;P1;durP1;ratioP1;P2;durP2;ratioP2
59571;SDS011;59406;45.602;11.904;2022-12-29T00:00:06;50.50;;;31.40;;
59571;SDS011;59406;45.602;11.904;2022-12-29T00:02:32;50.88;;;31.48;;
59571;SDS011;59406;45.602;11.904;2022-12-29T00:04:58;45.87;;;27.20;;
59571;SDS011;59406;45.602;11.904;2022-12-29T00:07:24;41.67;;;24.90;;
59571;SDS011;59406;45.602;11.904;2022-12-29T00:09:50;45.63;;;27.33;;
59571;SDS011;59406;45.602;11.904;2022-12-29T00:12:15;44.08;;;25.55;;
59571;SDS011;59406;45.602;11.904;2022-12-29T00:14:41;42.03;;;24.10;;
59571;SDS011;59406;45.602;11.904;2022-12-29T00:17:26;37.28;;;22.33;;
59571;SDS011;59406;45.602;11.904;2022-12-29T00:19:51;36.63;;;22.27;;
59571;SDS011;59406;45.602;11.904;2022-12-29T00:22:36;42.00;;;24.65;;
59571;SDS011;59406;45.602;11.904;2022-12-29T00:25:20;38.40;;;20.47;;
59571;SDS011;59406;45.602;11.904;2022-12-29T00:28:04;42.08;;;25.52;;
59571;SDS011;59406;45.602;11.904;2022-12-29T00:30:58;35.45;;;20.38;;
59571;SDS011;59406;45.602;11.904;2022-12-29T00:33:43;31.95;;;19.65;;
59571;SDS011;59406;45.602;11.904;2022-12-29T00:36:31;39.92;;;23.48;;
59571;SDS011;59406;45.602;11.904;2022-12-29T00:39:06;37.87;;;22.83;;
59571;SDS011;59406;45.602;11.904;2022-12-29T00:42:05;31.63;;;18.70;;
59571;SDS011;59406;45.602;11.904;2022-12-29T00:44:51;33.67;;;18.52;;
59571;SDS011;59406;45.602;11.904;2022-12-29T00:47:17;33.85;;;20.30;;
59571;SDS011;59406;45.602;11.904;2022-12-29T00:49:43;31.90;;;19.20;;
59571;SDS011;59406;45.602;11.904;2022-12-29T00:52:09;28.45;;;18.77;;
59571;SDS011;59406;45.602;11.904;2022-12-29T00:54:37;36.25;;;22.92;;
59571;SDS011;59406;45.602;11.904;2022-12-29T00:57:05;35.17;;;21.57;;
59571;SDS011;59406;45.602;11.904;2022-12-29T00:59:34;30.95;;;19.85;;
59571;SDS011;59406;45.602;11.904;2022-12-29T01:02:01;28.55;;;17.73;;
59571;SDS011;59406;45.602;11.904;2022-12-29T01:04:27;37.72;;;20.92;;
59571;SDS011;59406;45.602;11.904;2022-12-29T01:06:53;32.57;;;19.33;;
59571;SDS011;59406;45.602;11.904;2022-12-29T01:09:19;37.17;;;21.83;;
59571;SDS011;59406;45.602;11.904;2022-12-29T01:12:04;32.92;;;21.38;;
59571;SDS011;59406;45.602;11.904;2022-12-29T01:14:31;33.72;;;20.02;;
59571;SDS011;59406;45.602;11.904;2022-12-29T01:16:57;32.50;;;20.33;;
59571;SDS011;59406;45.602;11.904;2022-12-29T01:19:22;29.67;;;16.98;;
59571;SDS011;59406;45.602;11.904;2022-12-29T01:21:48;29.80;;;18.45;;
59571;SDS011;59406;45.602;11.904;2022-12-29T01:24:15;28.87;;;17.30;;
59571;SDS011;59406;45.602;11.904;2022-12-29T01:26:42;29.27;;;16.70;;
59571;SDS011;59406;45.602;11.904;2022-12-29T01:29:08;27.90;;;16.38;;
59571;SDS011;59406;45.602;11.904;2022-12-29T01:31:34;27.92;;;18.23;;
59571;SDS011;59406;45.602;11.904;2022-12-29T01:34:00;27.58;;;16.63;;
59571;SDS011;59406;45.602;11.904;2022-12-29T01:36:26;31.87;;;20.70;;
59571;SDS011;59406;45.602;11.904;2022-12-29T01:38:52;25.42;;;15.18;;
59571;SDS011;59406;45.602;11.904;2022-12-29T01:41:18;29.83;;;16.03;;
59571;SDS011;59406;45.602;11.904;2022-12-29T01:43:45;27.40;;;16.10;;
59571;SDS011;59406;45.602;11.904;2022-12-29T01:46:34;22.83;;;14.02;;
59571;SDS011;59406;45.602;11.904;2022-12-29T01:49:12;26.90;;;14.80;;
59571;SDS011;59406;45.602;11.904;2022-12-29T01:51:52;35.50;;;19.80;;
59571;SDS011;59406;45.602;11.904;2022-12-29T01:54:26;28.92;;;17.48;;
59571;SDS011;59406;45.602;11.904;2022-12-29T01:56:56;27.75;;;16.63;;
59571;SDS011;59406;45.602;11.904;2022-12-29T01:59:27;23.02;;;14.13;;
59571;SDS011;59406;45.602;11.904;2022-12-29T02:01:56;26.75;;;15.18;;
59571;SDS011;59406;45.602;11.904;2022-12-29T02:04:23;28.77;;;17.27;;
59571;SDS011;59406;45.602;11.904;2022-12-29T02:06:53;26.52;;;14.98;;
59571;SDS011;59406;45.602;11.904;2022-12-29T02:09:24;24.60;;;14.70;;
59571;SDS011;59406;45.602;11.904;2022-12-29T02:11:51;23.95;;;16.08;;
59571;SDS011;59406;45.602;11.904;2022-12-29T02:14:17;29.80;;;17.92;;
59571;SDS011;59406;45.602;11.904;2022-12-29T02:25:13;40.58;;;22.30;;
59571;SDS011;59406;45.602;11.904;2022-12-29T02:33:51;31.15;;;19.33;;
59571;SDS011;59406;45.602;11.904;2022-12-29T02:44:47;33.67;;;21.73;;
59571;SDS011;59406;45.602;11.904;2022-12-29T02:47:37;34.30;;;20.98;;
59571;SDS011;59406;45.602;11.904;2022-12-29T02:50:20;35.83;;;20.60;;
59571;SDS011;59406;45.602;11.904;2022-12-29T02:52:59;35.05;;;20.77;;
59571;SDS011;59406;45.602;11.904;2022-12-29T02:55:27;33.40;;;19.37;;
59571;SDS011;59406;45.602;11.904;2022-12-29T03:00:35;31.30;;;17.27;;
59571;SDS011;59406;45.602;11.904;2022-12-29T03:06:16;25.93;;;16.20;;
59571;SDS011;59406;45.602;11.904;2022-12-29T03:12:15;23.63;;;13.45;;
59571;SDS011;59406;45.602;11.904;2022-12-29T03:20:14;23.60;;;14.33;;
59571;SDS011;59406;45.602;11.904;2022-12-29T03:22:47;26.77;;;15.50;;
59571;SDS011;59406;45.602;11.904;2022-12-29T03:25:20;31.65;;;18.60;;
59571;SDS011;59406;45.602;11.904;2022-12-29T03:27:49;23.88;;;14.50;;
59571;SDS011;59406;45.602;11.904;2022-12-29T03:30:23;43.35;;;23.17;;
59571;SDS011;59406;45.602;11.904;2022-12-29T03:32:54;24.43;;;14.33;;
59571;SDS011;59406;45.602;11.904;2022-12-29T03:35:25;30.23;;;16.58;;
59571;SDS011;59406;45.602;11.904;2022-12-29T03:37:58;29.23;;;16.38;;
59571;SDS011;59406;45.602;11.904;2022-12-29T03:40:30;49.20;;;27.95;;
59571;SDS011;59406;45.602;11.904;2022-12-29T03:42:59;42.65;;;26.60;;
59571;SDS011;59406;45.602;11.904;2022-12-29T03:45:25;34.30;;;20.03;;
59571;SDS011;59406;45.602;11.904;2022-12-29T03:47:51;33.97;;;20.67;;
59571;SDS011;59406;45.602;11.904;2022-12-29T03:50:18;36.92;;;23.40;;
59571;SDS011;59406;45.602;11.904;2022-12-29T03:52:44;31.35;;;18.77;;
59571;SDS011;59406;45.602;11.904;2022-12-29T03:55:10;28.90;;;16.37;;
59571;SDS011;59406;45.602;11.904;2022-12-29T03:57:36;29.13;;;16.25;;
59571;SDS011;59406;45.602;11.904;2022-12-29T04:00:03;26.52;;;16.15;;
59571;SDS011;59406;45.602;11.904;2022-12-29T04:02:30;29.70;;;17.52;;
59571;SDS011;59406;45.602;11.904;2022-12-29T04:04:56;23.83;;;13.97;;
59571;SDS011;59406;45.602;11.904;2022-12-29T04:07:22;32.42;;;18.67;;
59571;SDS011;59406;45.602;11.904;2022-12-29T04:09:47;27.23;;;16.08;;
59571;SDS011;59406;45.602;11.904;2022-12-29T04:12:13;25.90;;;14.77;;
59571;SDS011;59406;45.602;11.904;2022-12-29T04:14:39;26.75;;;14.40;;
59571;SDS011;59406;45.602;11.904;2022-12-29T04:17:05;27.63;;;14.52;;
59571;SDS011;59406;45.602;11.904;2022-12-29T04:19:31;24.25;;;13.70;;
59571;SDS011;59406;45.602;11.904;2022-12-29T04:21:57;25.07;;;15.00;;
59571;SDS011;59406;45.602;11.904;2022-12-29T04:24:23;21.27;;;13.20;;
59571;SDS011;59406;45.602;11.904;2022-12-29T04:26:49;22.07;;;13.03;;
59571;SDS011;59406;45.602;11.904;2022-12-29T04:29:15;32.17;;;18.33;;
59571;SDS011;59406;45.602;11.904;2022-12-29T04:31:41;30.80;;;18.95;;
59571;SDS011;59406;45.602;11.904;2022-12-29T04:34:06;31.63;;;19.67;;
59571;SDS011;59406;45.602;11.904;2022-12-29T04:36:32;31.42;;;18.65;;
59571;SDS011;59406;45.602;11.904;2022-12-29T04:38:58;26.73;;;15.20;;
59571;SDS011;59406;45.602;11.904;2022-12-29T04:41:24;25.20;;;15.03;;
59571;SDS011;59406;45.602;11.904;2022-12-29T04:43:50;27.88;;;16.40;;
59571;SDS011;59406;45.602;11.904;2022-12-29T04:46:16;32.30;;;19.02;;
59571;SDS011;59406;45.602;11.904;2022-12-29T04:48:42;29.02;;;17.65;;
59571;SDS011;59406;45.602;11.904;2022-12-29T04:51:08;27.23;;;16.37;;
59571;SDS011;59406;45.602;11.904;2022-12-29T04:53:33;25.35;;;14.73;;
59571;SDS011;59406;45.602;11.904;2022-12-29T04:55:59;25.50;;;15.43;;
59571;SDS011;59406;45.602;11.904;2022-12-29T04:58:25;27.98;;;16.80;;
59571;SDS011;59406;45.602;11.904;2022-12-29T05:00:51;24.67;;;14.90;;
59571;SDS011;59406;45.602;11.904;2022-12-29T05:03:17;25.48;;;15.15;;
59571;SDS011;59406;45.602;11.904;2022-12-29T05:05:43;25.83;;;14.32;;
59571;SDS011;59406;45.602;11.904;2022-12-29T05:08:09;22.50;;;13.98;;
59571;SDS011;59406;45.602;11.904;2022-12-29T05:10:34;23.67;;;13.53;;
59571;SDS011;59406;45.602;11.904;2022-12-29T05:13:00;22.25;;;12.57;;
59571;SDS011;59406;45.602;11.904;2022-12-29T05:15:26;22.07;;;13.70;;
59571;SDS011;59406;45.602;11.904;2022-12-29T05:17:52;24.58;;;14.00;;
59571;SDS011;59406;45.602;11.904;2022-12-29T05:20:18;21.47;;;12.37;;
59571;SDS011;59406;45.602;11.904;2022-12-29T05:22:44;25.55;;;14.82;;
59571;SDS011;59406;45.602;11.904;2022-12-29T05:25:09;32.83;;;18.63;;
59571;SDS011;59406;45.602;11.904;2022-12-29T05:27:36;24.97;;;15.60;;
59571;SDS011;59406;45.602;11.904;2022-12-29T05:30:02;23.13;;;13.52;;
59571;SDS011;59406;45.602;11.904;2022-12-29T05:32:28;21.98;;;13.18;;
59571;SDS011;59406;45.602;11.904;2022-12-29T05:34:54;23.80;;;13.55;;
59571;SDS011;59406;45.602;11.904;2022-12-29T05:37:19;20.20;;;13.97;;
59571;SDS011;59406;45.602;11.904;2022-12-29T05:39:45;23.35;;;14.93;;
59571;SDS011;59406;45.602;11.904;2022-12-29T05:42:11;19.07;;;12.10;;
59571;SDS011;59406;45.602;11.904;2022-12-29T05:44:37;21.80;;;12.60;;
59571;SDS011;59406;45.602;11.904;2022-12-29T05:47:02;25.53;;;14.10;;
59571;SDS011;59406;45.602;11.904;2022-12-29T05:49:28;30.10;;;16.58;;
59571;SDS011;59406;45.602;11.904;2022-12-29T05:51:54;25.37;;;14.23;;
59571;SDS011;59406;45.602;11.904;2022-12-29T05:54:20;22.58;;;12.43;;
59571;SDS011;59406;45.602;11.904;2022-12-29T05:56:46;21.15;;;12.90;;
59571;SDS011;59406;45.602;11.904;2022-12-29T05:59:11;24.97;;;15.03;;
59571;SDS011;59406;45.602;11.904;2022-12-29T06:01:37;29.75;;;16.63;;
59571;SDS011;59406;45.602;11.904;2022-12-29T06:04:03;25.77;;;14.63;;
59571;SDS011;59406;45.602;11.904;2022-12-29T06:06:29;34.10;;;18.70;;
59571;SDS011;59406;45.602;11.904;2022-12-29T06:08:55;31.77;;;17.67;;
59571;SDS011;59406;45.602;11.904;2022-12-29T06:11:20;40.17;;;20.77;;
59571;SDS011;59406;45.602;11.904;2022-12-29T06:13:46;31.38;;;15.70;;
59571;SDS011;59406;45.602;11.904;2022-12-29T06:16:12;37.23;;;20.73;;
59571;SDS011;59406;45.602;11.904;2022-12-29T06:18:38;34.95;;;19.08;;
59571;SDS011;59406;45.602;11.904;2022-12-29T06:21:04;32.87;;;16.27;;
59571;SDS011;59406;45.602;11.904;2022-12-29T06:23:30;25.23;;;13.48;;
59571;SDS011;59406;45.602;11.904;2022-12-29T06:25:56;24.45;;;14.00;;
59571;SDS011;59406;45.602;11.904;2022-12-29T06:28:22;25.73;;;15.52;;
59571;SDS011;59406;45.602;11.904;2022-12-29T06:30:48;30.03;;;14.53;;
59571;SDS011;59406;45.602;11.904;2022-12-29T06:33:14;24.80;;;13.23;;
59571;SDS011;59406;45.602;11.904;2022-12-29T06:35:44;27.05;;;13.48;;
59571;SDS011;59406;45.602;11.904;2022-12-29T06:38:11;28.98;;;16.13;;
59571;SDS011;59406;45.602;11.904;2022-12-29T06:40:37;25.60;;;14.13;;
59571;SDS011;59406;45.602;11.904;2022-12-29T06:43:02;25.97;;;15.20;;
59571;SDS011;59406;45.602;11.904;2022-12-29T06:45:28;25.10;;;14.05;;
59571;SDS011;59406;45.602;11.904;2022-12-29T06:47:54;24.57;;;13.23;;
59571;SDS011;59406;45.602;11.904;2022-12-29T06:50:20;25.25;;;13.70;;
59571;SDS011;59406;45.602;11.904;2022-12-29T06:52:45;23.77;;;13.47;;
59571;SDS011;59406;45.602;11.904;2022-12-29T06:55:11;22.60;;;12.18;;
59571;SDS011;59406;45.602;11.904;2022-12-29T06:57:37;22.47;;;12.13;;
59571;SDS011;59406;45.602;11.904;2022-12-29T07:00:03;22.88;;;12.43;;
59571;SDS011;59406;45.602;11.904;2022-12-29T07:02:30;26.48;;;15.57;;
59571;SDS011;59406;45.602;11.904;2022-12-29T07:04:55;24.77;;;15.80;;
59571;SDS011;59406;45.602;11.904;2022-12-29T07:07:21;160.07;;;73.28;;
59571;SDS011;59406;45.602;11.904;2022-12-29T07:09:47;156.43;;;73.93;;
59571;SDS011;59406;45.602;11.904;2022-12-29T07:12:13;92.28;;;43.55;;
59571;SDS011;59406;45.602;11.904;2022-12-29T07:14:39;74.85;;;37.63;;
59571;SDS011;59406;45.602;11.904;2022-12-29T07:17:05;56.90;;;29.47;;
59571;SDS011;59406;45.602;11.904;2022-12-29T07:19:34;32.10;;;19.20;;
59571;SDS011;59406;45.602;11.904;2022-12-29T07:21:59;33.80;;;20.02;;
59571;SDS011;59406;45.602;11.904;2022-12-29T07:24:26;33.85;;;18.40;;
59571;SDS011;59406;45.602;11.904;2022-12-29T07:26:52;31.07;;;18.07;;
59571;SDS011;59406;45.602;11.904;2022-12-29T07:29:18;31.00;;;15.90;;
59571;SDS011;59406;45.602;11.904;2022-12-29T07:31:43;24.48;;;15.20;;
59571;SDS011;59406;45.602;11.904;2022-12-29T07:34:09;27.13;;;15.60;;
59571;SDS011;59406;45.602;11.904;2022-12-29T07:36:35;26.63;;;16.33;;
59571;SDS011;59406;45.602;11.904;2022-12-29T07:39:01;21.80;;;12.63;;
59571;SDS011;59406;45.602;11.904;2022-12-29T07:41:27;21.53;;;12.87;;
59571;SDS011;59406;45.602;11.904;2022-12-29T07:43:53;25.05;;;14.32;;
59571;SDS011;59406;45.602;11.904;2022-12-29T07:46:19;22.70;;;12.85;;
59571;SDS011;59406;45.602;11.904;2022-12-29T07:48:44;23.70;;;13.97;;
59571;SDS011;59406;45.602;11.904;2022-12-29T07:51:10;20.08;;;12.13;;
59571;SDS011;59406;45.602;11.904;2022-12-29T07:53:36;18.10;;;11.37;;
59571;SDS011;59406;45.602;11.904;2022-12-29T07:56:02;22.60;;;13.80;;
59571;SDS011;59406;45.602;11.904;2022-12-29T07:58:28;20.70;;;11.82;;
59571;SDS011;59406;45.602;11.904;2022-12-29T08:00:54;27.97;;;16.93;;
59571;SDS011;59406;45.602;11.904;2022-12-29T08:03:20;32.50;;;19.63;;
59571;SDS011;59406;45.602;11.904;2022-12-29T08:05:46;24.17;;;14.68;;
59571;SDS011;59406;45.602;11.904;2022-12-29T08:08:12;33.50;;;18.65;;
59571;SDS011;59406;45.602;11.904;2022-12-29T08:10:38;28.30;;;17.60;;
59571;SDS011;59406;45.602;11.904;2022-12-29T08:13:04;29.98;;;17.80;;
59571;SDS011;59406;45.602;11.904;2022-12-29T08:15:30;25.45;;;14.93;;
59571;SDS011;59406;45.602;11.904;2022-12-29T08:17:55;25.80;;;16.07;;
59571;SDS011;59406;45.602;11.904;2022-12-29T08:20:21;27.30;;;15.18;;
59571;SDS011;59406;45.602;11.904;2022-12-29T08:22:47;26.67;;;15.43;;
59571;SDS011;59406;45.602;11.904;2022-12-29T08:25:13;25.42;;;15.88;;
59571;SDS011;59406;45.602;11.904;2022-12-29T08:27:39;27.60;;;15.10;;
59571;SDS011;59406;45.602;11.904;2022-12-29T08:30:05;32.33;;;19.77;;
59571;SDS011;59406;45.602;11.904;2022-12-29T08:32:31;26.40;;;15.65;;
59571;SDS011;59406;45.602;11.904;2022-12-29T08:34:57;25.88;;;15.90;;
59571;SDS011;59406;45.602;11.904;2022-12-29T08:37:24;30.20;;;21.40;;
59571;SDS011;59406;45.602;11.904;2022-12-29T08:39:50;32.63;;;21.77;;
59571;SDS011;59406;45.602;11.904;2022-12-29T08:42:16;25.63;;;15.90;;
59571;SDS011;59406;45.602;11.904;2022-12-29T08:44:41;30.48;;;17.25;;
59571;SDS011;59406;45.602;11.904;2022-12-29T08:47:08;24.45;;;15.70;;
59571;SDS011;59406;45.602;11.904;2022-12-29T08:49:35;27.27;;;16.93;;
59571;SDS011;59406;45.602;11.904;2022-12-29T08:52:01;29.42;;;17.38;;
59571;SDS011;59406;45.602;11.904;2022-12-29T08:54:27;37.83;;;20.60;;
59571;SDS011;59406;45.602;11.904;2022-12-29T08:56:53;27.45;;;17.30;;
59571;SDS011;59406;45.602;11.904;2022-12-29T08:59:19;27.37;;;15.73;;
59571;SDS011;59406;45.602;11.904;2022-12-29T09:01:45;26.17;;;14.10;;
59571;SDS011;59406;45.602;11.904;2022-12-29T09:04:11;26.00;;;15.68;;
59571;SDS011;59406;45.602;11.904;2022-12-29T09:06:37;22.50;;;14.23;;
59571;SDS011;59406;45.602;11.904;2022-12-29T09:09:03;23.30;;;15.10;;
59571;SDS011;59406;45.602;11.904;2022-12-29T09:11:29;23.17;;;14.48;;
59571;SDS011;59406;45.602;11.904;2022-12-29T09:13:55;23.73;;;14.60;;
59571;SDS011;59406;45.602;11.904;2022-12-29T09:16:22;23.40;;;15.05;;
59571;SDS011;59406;45.602;11.904;2022-12-29T09:18:49;22.58;;;15.27;;
59571;SDS011;59406;45.602;11.904;2022-12-29T09:21:15;21.95;;;15.15;;
59571;SDS011;59406;45.602;11.904;2022-12-29T09:23:41;22.83;;;13.73;;
59571;SDS011;59406;45.602;11.904;2022-12-29T09:26:07;21.85;;;14.45;;
59571;SDS011;59406;45.602;11.904;2022-12-29T09:28:33;18.60;;;11.15;;
59571;SDS011;59406;45.602;11.904;2022-12-29T09:31:00;21.07;;;11.53;;
59571;SDS011;59406;45.602;11.904;2022-12-29T09:33:26;25.70;;;15.50;;
59571;SDS011;59406;45.602;11.904;2022-12-29T09:35:54;28.30;;;15.50;;
59571;SDS011;59406;45.602;11.904;2022-12-29T09:38:21;24.38;;;14.95;;
59571;SDS011;59406;45.602;11.904;2022-12-29T09:40:49;18.60;;;12.30;;
59571;SDS011;59406;45.602;11.904;2022-12-29T09:48:27;21.45;;;12.20;;
59571;SDS011;59406;45.602;11.904;2022-12-29T09:50:57;22.05;;;13.18;;
59571;SDS011;59406;45.602;11.904;2022-12-29T09:53:31;21.08;;;12.02;;
59571;SDS011;59406;45.602;11.904;2022-12-29T09:56:01;19.87;;;12.17;;
59571;SDS011;59406;45.602;11.904;2022-12-29T09:58:30;16.98;;;11.35;;
59571;SDS011;59406;45.602;11.904;2022-12-29T10:01:03;18.95;;;10.93;;
59571;SDS011;59406;45.602;11.904;2022-12-29T10:03:50;22.20;;;12.68;;
59571;SDS011;59406;45.602;11.904;2022-12-29T10:06:21;17.70;;;11.05;;
59571;SDS011;59406;45.602;11.904;2022-12-29T10:09:25;26.27;;;13.23;;
59571;SDS011;59406;45.602;11.904;2022-12-29T10:14:41;21.20;;;12.02;;
59571;SDS011;59406;45.602;11.904;2022-12-29T10:17:25;20.40;;;12.73;;
59571;SDS011;59406;45.602;11.904;2022-12-29T10:25:43;20.70;;;13.15;;
59571;SDS011;59406;45.602;11.904;2022-12-29T10:28:19;20.77;;;13.30;;
59571;SDS011;59406;45.602;11.904;2022-12-29T10:30:48;18.35;;;12.85;;
59571;SDS011;59406;45.602;11.904;2022-12-29T10:33:17;24.48;;;14.20;;
59571;SDS011;59406;45.602;11.904;2022-12-29T10:35:48;21.87;;;12.47;;
59571;SDS011;59406;45.602;11.904;2022-12-29T10:38:18;22.08;;;12.30;;
59571;SDS011;59406;45.602;11.904;2022-12-29T10:41:21;19.05;;;12.15;;
59571;SDS011;59406;45.602;11.904;2022-12-29T10:43:53;17.95;;;12.15;;
59571;SDS011;59406;45.602;11.904;2022-12-29T10:46:23;18.98;;;12.40;;
59571;SDS011;59406;45.602;11.904;2022-12-29T10:48:54;21.63;;;12.27;;
59571;SDS011;59406;45.602;11.904;2022-12-29T10:51:28;25.80;;;14.45;;
59571;SDS011;59406;45.602;11.904;2022-12-29T10:54:03;17.98;;;11.05;;
59571;SDS011;59406;45.602;11.904;2022-12-29T10:56:33;18.88;;;11.52;;
59571;SDS011;59406;45.602;11.904;2022-12-29T10:59:15;17.25;;;10.88;;
59571;SDS011;59406;45.602;11.904;2022-12-29T11:07:29;23.50;;;14.48;;
59571;SDS011;59406;45.602;11.904;2022-12-29T11:10:15;19.65;;;12.15;;
59571;SDS011;59406;45.602;11.904;2022-12-29T11:12:57;19.35;;;12.75;;
59571;SDS011;59406;45.602;11.904;2022-12-29T11:15:38;18.23;;;11.73;;
59571;SDS011;59406;45.602;11.904;2022-12-29T11:18:24;18.92;;;12.05;;
59571;SDS011;59406;45.602;11.904;2022-12-29T11:20:59;20.30;;;12.85;;
59571;SDS011;59406;45.602;11.904;2022-12-29T11:23:29;18.63;;;11.68;;
59571;SDS011;59406;45.602;11.904;2022-12-29T11:26:05;19.17;;;12.07;;
59571;SDS011;59406;45.602;11.904;2022-12-29T11:28:42;20.97;;;12.13;;
59571;SDS011;59406;45.602;11.904;2022-12-29T11:31:10;22.15;;;13.43;;
59571;SDS011;59406;45.602;11.904;2022-12-29T11:33:40;25.33;;;14.25;;
59571;SDS011;59406;45.602;11.904;2022-12-29T11:36:07;19.55;;;12.77;;
59571;SDS011;59406;45.602;11.904;2022-12-29T11:38:42;17.20;;;11.10;;
59571;SDS011;59406;45.602;11.904;2022-12-29T11:41:13;18.57;;;10.60;;
59571;SDS011;59406;45.602;11.904;2022-12-29T11:43:45;18.15;;;12.70;;
59571;SDS011;59406;45.602;11.904;2022-12-29T11:46:14;18.83;;;11.90;;
59571;SDS011;59406;45.602;11.904;2022-12-29T11:48:43;20.45;;;11.77;;
59571;SDS011;59406;45.602;11.904;2022-12-29T11:51:12;20.80;;;12.82;;
59571;SDS011;59406;45.602;11.904;2022-12-29T11:53:49;22.47;;;13.23;;
59571;SDS011;59406;45.602;11.904;2022-12-29T11:56:17;22.20;;;13.25;;
59571;SDS011;59406;45.602;11.904;2022-12-29T11:58:47;17.77;;;12.00;;
59571;SDS011;59406;45.602;11.904;2022-12-29T12:06:22;19.30;;;13.27;;
59571;SDS011;59406;45.602;11.904;2022-12-29T12:08:56;19.33;;;12.13;;
59571;SDS011;59406;45.602;11.904;2022-12-29T12:11:38;22.90;;;14.23;;
59571;SDS011;59406;45.602;11.904;2022-12-29T12:14:12;19.83;;;13.30;;
59571;SDS011;59406;45.602;11.904;2022-12-29T12:17:04;24.25;;;13.90;;
59571;SDS011;59406;45.602;11.904;2022-12-29T12:19:38;20.80;;;13.10;;
59571;SDS011;59406;45.602;11.904;2022-12-29T12:22:17;20.15;;;11.98;;
59571;SDS011;59406;45.602;11.904;2022-12-29T12:24:55;20.13;;;12.75;;
59571;SDS011;59406;45.602;11.904;2022-12-29T12:27:37;19.52;;;12.35;;
59571;SDS011;59406;45.602;11.904;2022-12-29T12:38:24;18.13;;;11.50;;
59571;SDS011;59406;45.602;11.904;2022-12-29T12:43:46;21.70;;;13.32;;
59571;SDS011;59406;45.602;11.904;2022-12-29T12:49:16;18.58;;;10.98;;
59571;SDS011;59406;45.602;11.904;2022-12-29T12:57:27;16.55;;;10.57;;
59571;SDS011;59406;45.602;11.904;2022-12-29T13:00:04;17.77;;;11.10;;
59571;SDS011;59406;45.602;11.904;2022-12-29T13:05:47;17.67;;;9.57;;
59571;SDS011;59406;45.602;11.904;2022-12-29T13:13:55;20.87;;;13.60;;
59571;SDS011;59406;45.602;11.904;2022-12-29T13:16:41;21.75;;;12.75;;
59571;SDS011;59406;45.602;11.904;2022-12-29T13:22:18;20.35;;;13.57;;
59571;SDS011;59406;45.602;11.904;2022-12-29T13:27:23;18.07;;;11.13;;
59571;SDS011;59406;45.602;11.904;2022-12-29T13:38:03;18.13;;;10.82;;
59571;SDS011;59406;45.602;11.904;2022-12-29T13:40:32;19.63;;;11.38;;
59571;SDS011;59406;45.602;11.904;2022-12-29T13:43:04;18.17;;;11.55;;
59571;SDS011;59406;45.602;11.904;2022-12-29T13:45:31;19.92;;;13.18;;
59571;SDS011;59406;45.602;11.904;2022-12-29T13:48:06;24.13;;;15.50;;
59571;SDS011;59406;45.602;11.904;2022-12-29T13:50:46;22.35;;;14.18;;
59571;SDS011;59406;45.602;11.904;2022-12-29T13:55:59;25.50;;;15.20;;
59571;SDS011;59406;45.602;11.904;2022-12-29T14:01:34;20.83;;;13.90;;
59571;SDS011;59406;45.602;11.904;2022-12-29T14:04:10;25.27;;;16.33;;
59571;SDS011;59406;45.602;11.904;2022-12-29T14:06:46;23.17;;;14.65;;
59571;SDS011;59406;45.602;11.904;2022-12-29T14:09:57;26.65;;;17.35;;
59571;SDS011;59406;45.602;11.904;2022-12-29T14:17:36;26.50;;;16.42;;
59571;SDS011;59406;45.602;11.904;2022-12-29T14:20:04;27.63;;;16.38;;
59571;SDS011;59406;45.602;11.904;2022-12-29T14:22:40;25.08;;;14.93;;
59571;SDS011;59406;45.602;11.904;2022-12-29T14:28:29;24.93;;;14.53;;
59571;SDS011;59406;45.602;11.904;2022-12-29T14:30:57;21.88;;;13.43;;
59571;SDS011;59406;45.602;11.904;2022-12-29T14:33:26;23.58;;;15.82;;
59571;SDS011;59406;45.602;11.904;2022-12-29T14:35:56;20.90;;;12.75;;
59571;SDS011;59406;45.602;11.904;2022-12-29T14:38:45;23.75;;;14.65;;
59571;SDS011;59406;45.602;11.904;2022-12-29T14:41:16;27.67;;;16.67;;
59571;SDS011;59406;45.602;11.904;2022-12-29T14:43:51;22.92;;;12.98;;
59571;SDS011;59406;45.602;11.904;2022-12-29T14:46:19;21.95;;;13.57;;
59571;SDS011;59406;45.602;11.904;2022-12-29T14:48:45;23.65;;;13.35;;
59571;SDS011;59406;45.602;11.904;2022-12-29T14:51:26;22.38;;;13.45;;
59571;SDS011;59406;45.602;11.904;2022-12-29T14:53:59;20.60;;;12.10;;
59571;SDS011;59406;45.602;11.904;2022-12-29T14:56:26;26.02;;;14.85;;
59571;SDS011;59406;45.602;11.904;2022-12-29T14:59:01;27.15;;;16.33;;
59571;SDS011;59406;45.602;11.904;2022-12-29T15:04:20;29.27;;;17.92;;
59571;SDS011;59406;45.602;11.904;2022-12-29T15:06:50;26.00;;;16.03;;
59571;SDS011;59406;45.602;11.904;2022-12-29T15:12:01;26.77;;;17.15;;
59571;SDS011;59406;45.602;11.904;2022-12-29T15:14:39;27.20;;;16.73;;
59571;SDS011;59406;45.602;11.904;2022-12-29T15:17:30;32.60;;;19.67;;
59571;SDS011;59406;45.602;11.904;2022-12-29T15:20:00;26.40;;;14.77;;
59571;SDS011;59406;45.602;11.904;2022-12-29T15:22:54;23.48;;;14.43;;
59571;SDS011;59406;45.602;11.904;2022-12-29T15:25:22;27.30;;;15.15;;
59571;SDS011;59406;45.602;11.904;2022-12-29T15:28:01;24.65;;;14.35;;
59571;SDS011;59406;45.602;11.904;2022-12-29T15:30:29;21.73;;;13.35;;
59571;SDS011;59406;45.602;11.904;2022-12-29T15:32:55;22.80;;;14.07;;
59571;SDS011;59406;45.602;11.904;2022-12-29T15:35:25;26.80;;;15.07;;
59571;SDS011;59406;45.602;11.904;2022-12-29T15:37:57;20.05;;;12.73;;
59571;SDS011;59406;45.602;11.904;2022-12-29T15:40:28;19.52;;;12.00;;
59571;SDS011;59406;45.602;11.904;2022-12-29T15:45:40;21.40;;;12.73;;
59571;SDS011;59406;45.602;11.904;2022-12-29T15:48:08;20.48;;;11.73;;
59571;SDS011;59406;45.602;11.904;2022-12-29T15:50:43;18.80;;;11.02;;
59571;SDS011;59406;45.602;11.904;2022-12-29T15:53:11;22.65;;;12.85;;
59571;SDS011;59406;45.602;11.904;2022-12-29T15:55:41;27.67;;;17.13;;
59571;SDS011;59406;45.602;11.904;2022-12-29T15:58:21;25.90;;;15.23;;
59571;SDS011;59406;45.602;11.904;2022-12-29T16:00:50;25.27;;;13.98;;
59571;SDS011;59406;45.602;11.904;2022-12-29T16:03:25;26.52;;;15.18;;
59571;SDS011;59406;45.602;11.904;2022-12-29T16:06:36;25.17;;;13.95;;
59571;SDS011;59406;45.602;11.904;2022-12-29T16:09:02;22.50;;;12.85;;
59571;SDS011;59406;45.602;11.904;2022-12-29T16:11:37;24.63;;;13.97;;
59571;SDS011;59406;45.602;11.904;2022-12-29T16:17:00;30.02;;;17.50;;
59571;SDS011;59406;45.602;11.904;2022-12-29T16:19:37;23.10;;;13.40;;
59571;SDS011;59406;45.602;11.904;2022-12-29T16:22:38;26.50;;;15.00;;
59571;SDS011;59406;45.602;11.904;2022-12-29T16:25:13;22.80;;;13.53;;
59571;SDS011;59406;45.602;11.904;2022-12-29T16:27:44;25.38;;;15.05;;
59571;SDS011;59406;45.602;11.904;2022-12-29T16:30:52;26.23;;;14.65;;
59571;SDS011;59406;45.602;11.904;2022-12-29T16:33:03;25.63;;;14.98;;
59571;SDS011;59406;45.602;11.904;2022-12-29T16:38:17;28.47;;;16.93;;